MDT,Max TemperatureF,Mean TemperatureF,Min TemperatureF,Max Dew PointF,MeanDew PointF,Min DewpointF,Max Humidity, Mean Humidity, Min Humidity, Max Sea Level PressureIn, Mean Sea Level PressureIn, Min Sea Level PressureIn, Max VisibilityMiles, Mean VisibilityMiles, Min VisibilityMiles, Max Wind SpeedMPH, Mean Wind SpeedMPH, Max Gust SpeedMPH,PrecipitationIn, CloudCover, Events, WindDirDegrees
2013-7-1,86,70,54,61,56,46,93,60,27,30.16,30.13,30.10,10,10,10,8,5,,0.00,0,,103
2013-7-2,91,73,55,56,54,51,86,57,27,30.11,30.01,29.86,10,10,10,10,5,13,0.00,0,,121
2013-7-3,91,75,58,60,54,48,75,50,24,29.88,29.83,29.77,10,10,10,18,7,26,0.00,1,,258
2013-7-4,80,70,59,64,62,56,93,76,58,29.99,29.83,29.72,10,10,10,18,8,23,0.01,3,,99
2013-7-5,77,66,55,57,54,49,93,68,43,29.94,29.78,29.71,10,9,2,22,8,26,0.34,2,Rain,278
2013-7-6,73,62,50,55,51,48,100,75,49,29.98,29.90,29.78,10,10,10,14,7,20,0.01,2,,289
2013-7-7,80,67,54,59,54,50,93,69,45,29.99,29.90,29.83,10,8,0,8,9,9,0.53,3,Rain,100
2013-7-8,78,65,52,59,55,50,96,73,50,30.13,29.97,29.88,10,10,7,25,6,31,0.04,2,Rain,56
2013-7-9,76,62,48,54,50,46,100,69,38,30.18,30.12,30.05,10,10,10,12,4,21,0.01,0,,184
2013-7-10,90,70,50,53,49,40,89,53,17,30.09,29.95,29.76,10,10,8,13,6,16,0.00,0,,110
2013-7-11,86,75,64,54,46,39,52,39,25,29.80,29.71,29.64,10,10,10,20,8,28,T,1,Rain,263
2013-7-12,83,71,58,57,47,39,86,55,24,29.97,29.81,29.75,10,10,10,37,8,53,0.06,1,Rain,236
2013-7-13,74,64,53,52,47,42,86,60,33,30.19,30.01,29.84,10,10,10,20,10,28,0.00,2,,360
2013-7-14,80,69,57,50,45,38,67,48,28,30.19,30.09,29.99,10,10,10,30,13,38,T,4,Rain,108
2013-7-15,94,74,53,56,46,34,83,48,13,30.05,29.90,29.81,10,10,10,23,7,32,0.00,0,,284
2013-7-16,74,62,49,51,45,42,80,58,35,30.23,30.17,30.07,10,10,10,23,10,28,0.00,0,,85
2013-7-17,84,71,58,62,57,51,87,67,47,30.17,30.08,29.95,10,9,2,41,9,52,0.28,3,Rain,108
2013-7-18,84,69,54,55,47,38,93,57,20,30.09,30.04,29.99,10,10,10,18,8,25,0.00,0,,292
2013-7-19,87,69,51,49,43,34,77,46,15,30.09,30.00,29.93,10,10,10,18,7,24,0.00,0,,89
2013-7-20,85,68,50,52,47,43,83,53,23,29.99,29.90,29.79,10,10,10,13,4,16,0.00,0,,87
2013-7-21,84,68,51,50,45,39,77,51,25,29.83,29.80,29.74,10,10,10,20,8,25,0.00,0,,25
2013-7-22,86,69,51,50,43,34,83,50,17,29.92,29.83,29.79,10,10,10,28,8,36,0.00,0,,23
2013-7-23,83,67,50,52,47,45,77,53,28,30.07,30.01,29.92,10,10,8,15,7,18,0.00,0,,60
2013-7-24,90,73,55,55,49,41,77,48,19,30.23,30.00,29.87,10,10,9,25,7,31,0.09,1,Rain,82
2013-7-25,77,64,51,56,52,49,96,67,38,30.17,30.12,30.04,10,10,10,22,10,26,0.00,0,,108
2013-7-26,82,67,51,52,47,42,71,54,36,30.19,30.10,30.03,10,10,10,24,13,29,0.00,0,,95
2013-7-27,88,71,53,49,44,36,71,44,17,30.03,29.87,29.76,10,10,10,10,8,16,0.00,0,,91
2013-7-28,75,63,51,53,51,45,86,65,44,29.89,29.84,29.77,10,10,10,15,6,18,0.01,1,,287
2013-7-29,67,59,50,52,50,46,96,76,56,30.12,30.03,29.87,10,10,3,16,5,24,0.29,4,Rain,8
2013-7-30,73,62,51,55,52,49,93,73,53,30.24,30.15,30.03,10,10,10,14,5,15,T,5,,229
2013-7-31,82,65,48,55,52,47,100,67,34,30.22,30.14,30.06,10,10,10,13,6,14,0.00,0,,80